sensor_id;sensor_type;location;lat;lon;timestamp;pressure;altitude;pressure_sealevel;temperature;humidity
72061;BME280;59925;52.136;5.420;2023-04-29T00:02:08;101630.91;;;9.20;93.85
72061;BME280;59925;52.136;5.420;2023-04-29T00:04:34;101636.75;;;9.17;93.81
72061;BME280;59925;52.136;5.420;2023-04-29T00:07:01;101644.44;;;9.14;93.85
72061;BME280;59925;52.136;5.420;2023-04-29T00:09:27;101638.28;;;9.13;94.13
72061;BME280;59925;52.136;5.420;2023-04-29T00:11:53;101640.16;;;9.13;94.20
72061;BME280;59925;52.136;5.420;2023-04-29T00:14:20;101642.59;;;9.14;94.23
72061;BME280;59925;52.136;5.420;2023-04-29T00:16:46;101643.63;;;9.13;93.80
72061;BME280;59925;52.136;5.420;2023-04-29T00:19:13;101646.56;;;9.12;94.16
72061;BME280;59925;52.136;5.420;2023-04-29T00:21:39;101650.59;;;9.14;94.12
72061;BME280;59925;52.136;5.420;2023-04-29T00:24:06;101648.19;;;9.13;94.27
72061;BME280;59925;52.136;5.420;2023-04-29T00:26:33;101653.75;;;9.11;93.74
72061;BME280;59925;52.136;5.420;2023-04-29T00:29:00;101656.44;;;9.11;93.97
72061;BME280;59925;52.136;5.420;2023-04-29T00:31:27;101658.31;;;9.11;93.96
72061;BME280;59925;52.136;5.420;2023-04-29T00:33:53;101656.69;;;9.10;93.96
72061;BME280;59925;52.136;5.420;2023-04-29T00:36:20;101666.56;;;9.09;94.22
72061;BME280;59925;52.136;5.420;2023-04-29T00:38:46;101665.28;;;9.12;94.00
72061;BME280;59925;52.136;5.420;2023-04-29T00:41:12;101667.13;;;9.11;94.18
72061;BME280;59925;52.136;5.420;2023-04-29T00:43:39;101668.75;;;9.12;93.67
72061;BME280;59925;52.136;5.420;2023-04-29T00:46:05;101667.97;;;9.12;94.17
72061;BME280;59925;52.136;5.420;2023-04-29T00:48:32;101670.28;;;9.08;94.01
72061;BME280;59925;52.136;5.420;2023-04-29T00:50:58;101672.16;;;9.08;94.11
72061;BME280;59925;52.136;5.420;2023-04-29T00:53:25;101676.69;;;9.07;94.15
72061;BME280;59925;52.136;5.420;2023-04-29T00:55:52;101671.56;;;9.05;94.14
72061;BME280;59925;52.136;5.420;2023-04-29T00:58:19;101670.78;;;9.05;94.06
72061;BME280;59925;52.136;5.420;2023-04-29T01:00:46;101676.94;;;9.05;94.22
72061;BME280;59925;52.136;5.420;2023-04-29T01:03:13;101679.34;;;9.07;94.42
72061;BME280;59925;52.136;5.420;2023-04-29T01:05:40;101680.19;;;9.08;94.48
72061;BME280;59925;52.136;5.420;2023-04-29T01:08:28;101687.63;;;9.05;94.61
72061;BME280;59925;52.136;5.420;2023-04-29T01:11:07;101690.28;;;9.05;94.31
72061;BME280;59925;52.136;5.420;2023-04-29T01:13:42;101685.41;;;9.02;94.11
72061;BME280;59925;52.136;5.420;2023-04-29T01:16:34;101696.94;;;9.03;94.19
72061;BME280;59925;52.136;5.420;2023-04-29T01:19:15;101698.22;;;9.00;94.03
72061;BME280;59925;52.136;5.420;2023-04-29T01:21:46;101700.09;;;9.00;94.17
72061;BME280;59925;52.136;5.420;2023-04-29T01:24:14;101704.38;;;9.01;94.19
72061;BME280;59925;52.136;5.420;2023-04-29T01:26:48;101706.81;;;9.02;93.97
72061;BME280;59925;52.136;5.420;2023-04-29T01:32:25;101710.53;;;9.01;94.17
72061;BME280;59925;52.136;5.420;2023-04-29T01:35:19;101707.66;;;9.03;93.94
72061;BME280;59925;52.136;5.420;2023-04-29T01:40:49;101710.91;;;9.05;93.77
72061;BME280;59925;52.136;5.420;2023-04-29T01:43:22;101715.41;;;9.04;93.95
72061;BME280;59925;52.136;5.420;2023-04-29T01:45:51;101719.72;;;9.05;93.69
72061;BME280;59925;52.136;5.420;2023-04-29T01:48:19;101720.31;;;9.08;93.78
72061;BME280;59925;52.136;5.420;2023-04-29T01:50:45;101718.69;;;9.07;93.59
72061;BME280;59925;52.136;5.420;2023-04-29T01:53:12;101726.94;;;9.05;93.21
72061;BME280;59925;52.136;5.420;2023-04-29T01:55:39;101722.41;;;9.05;93.56
72061;BME280;59925;52.136;5.420;2023-04-29T01:58:05;101721.81;;;9.03;93.38
72061;BME280;59925;52.136;5.420;2023-04-29T02:00:31;101726.69;;;9.07;93.29
72061;BME280;59925;52.136;5.420;2023-04-29T02:02:58;101720.56;;;9.06;93.47
72061;BME280;59925;52.136;5.420;2023-04-29T02:05:24;101730.41;;;9.05;93.59
72061;BME280;59925;52.136;5.420;2023-04-29T02:07:51;101731.25;;;9.06;93.70
72061;BME280;59925;52.136;5.420;2023-04-29T02:10:17;101736.59;;;9.06;93.56
72061;BME280;59925;52.136;5.420;2023-04-29T02:12:43;101737.41;;;9.07;93.39
72061;BME280;59925;52.136;5.420;2023-04-29T02:15:11;101735.53;;;9.07;93.36
72061;BME280;59925;52.136;5.420;2023-04-29T02:17:37;101740.06;;;9.07;93.39
72061;BME280;59925;52.136;5.420;2023-04-29T02:20:04;101742.75;;;9.07;93.28
72061;BME280;59925;52.136;5.420;2023-04-29T02:22:31;101746.22;;;9.07;93.24
72061;BME280;59925;52.136;5.420;2023-04-29T02:24:57;101749.97;;;9.06;93.22
72061;BME280;59925;52.136;5.420;2023-04-29T02:27:24;101756.69;;;9.09;93.33
72061;BME280;59925;52.136;5.420;2023-04-29T02:29:51;101752.66;;;9.06;93.24
72061;BME280;59925;52.136;5.420;2023-04-29T02:32:18;101758.53;;;9.08;93.34
72061;BME280;59925;52.136;5.420;2023-04-29T02:34:45;101752.72;;;9.11;93.00
72061;BME280;59925;52.136;5.420;2023-04-29T02:37:12;101766.69;;;9.13;93.01
72061;BME280;59925;52.136;5.420;2023-04-29T02:39:38;101759.72;;;9.12;92.93
72061;BME280;59925;52.136;5.420;2023-04-29T02:42:05;101771.00;;;9.14;92.91
72061;BME280;59925;52.136;5.420;2023-04-29T02:44:31;101772.03;;;9.13;92.76
72061;BME280;59925;52.136;5.420;2023-04-29T02:46:58;101784.13;;;9.16;92.69
72061;BME280;59925;52.136;5.420;2023-04-29T02:49:24;101773.41;;;9.16;92.73
72061;BME280;59925;52.136;5.420;2023-04-29T02:51:50;101780.66;;;9.15;92.56
72061;BME280;59925;52.136;5.420;2023-04-29T02:54:17;101784.38;;;9.14;92.22
72061;BME280;59925;52.136;5.420;2023-04-29T02:56:43;101780.66;;;9.15;92.53
72061;BME280;59925;52.136;5.420;2023-04-29T02:59:10;101789.47;;;9.16;92.29
72061;BME280;59925;52.136;5.420;2023-04-29T03:01:36;101787.03;;;9.14;92.35
72061;BME280;59925;52.136;5.420;2023-04-29T03:04:04;101790.75;;;9.13;92.41
72061;BME280;59925;52.136;5.420;2023-04-29T03:06:32;101793.44;;;9.13;92.52
72061;BME280;59925;52.136;5.420;2023-04-29T03:08:58;101789.97;;;9.13;92.46
72061;BME280;59925;52.136;5.420;2023-04-29T03:11:24;101795.06;;;9.14;92.16
72061;BME280;59925;52.136;5.420;2023-04-29T03:13:51;101803.09;;;9.14;92.22
72061;BME280;59925;52.136;5.420;2023-04-29T03:16:17;101800.66;;;9.13;92.15
72061;BME280;59925;52.136;5.420;2023-04-29T03:18:44;101807.88;;;9.12;91.93
72061;BME280;59925;52.136;5.420;2023-04-29T03:21:10;101813.22;;;9.12;91.96
72061;BME280;59925;52.136;5.420;2023-04-29T03:23:36;101811.13;;;9.14;92.04
72061;BME280;59925;52.136;5.420;2023-04-29T03:26:04;101807.88;;;9.12;92.11
72061;BME280;59925;52.136;5.420;2023-04-29T03:28:31;101809.97;;;9.10;91.43
72061;BME280;59925;52.136;5.420;2023-04-29T03:30:57;101812.63;;;9.10;91.37
72061;BME280;59925;52.136;5.420;2023-04-29T03:33:24;101815.88;;;9.12;91.30
72061;BME280;59925;52.136;5.420;2023-04-29T03:35:50;101808.69;;;9.13;91.17
72061;BME280;59925;52.136;5.420;2023-04-29T03:38:17;101817.19;;;9.10;90.99
72061;BME280;59925;52.136;5.420;2023-04-29T03:40:43;101814.50;;;9.10;90.79
72061;BME280;59925;52.136;5.420;2023-04-29T03:43:10;101818.22;;;9.09;90.66
72061;BME280;59925;52.136;5.420;2023-04-29T03:45:39;101818.81;;;9.11;90.39
72061;BME280;59925;52.136;5.420;2023-04-29T03:48:05;101829.50;;;9.11;90.19
72061;BME280;59925;52.136;5.420;2023-04-29T03:50:32;101822.53;;;9.10;90.04
72061;BME280;59925;52.136;5.420;2023-04-29T03:52:58;101832.97;;;9.11;89.66
72061;BME280;59925;52.136;5.420;2023-04-29T03:55:25;101833.22;;;9.10;89.40
72061;BME280;59925;52.136;5.420;2023-04-29T03:57:51;101834.63;;;9.12;89.32
72061;BME280;59925;52.136;5.420;2023-04-29T04:00:17;101839.16;;;9.12;88.89
72061;BME280;59925;52.136;5.420;2023-04-29T04:02:44;101839.16;;;9.12;89.06
72061;BME280;59925;52.136;5.420;2023-04-29T04:05:11;101845.56;;;9.11;88.99
72061;BME280;59925;52.136;5.420;2023-04-29T04:07:38;101844.16;;;9.08;88.67
72061;BME280;59925;52.136;5.420;2023-04-29T04:10:04;101847.06;;;9.07;88.50
72061;BME280;59925;52.136;5.420;2023-04-29T04:12:31;101850.00;;;9.05;88.11
72061;BME280;59925;52.136;5.420;2023-04-29T04:14:58;101852.41;;;9.07;88.43
72061;BME280;59925;52.136;5.420;2023-04-29T04:17:24;101852.66;;;9.05;88.23
72061;BME280;59925;52.136;5.420;2023-04-29T04:19:50;101858.56;;;9.07;88.20
72061;BME280;59925;52.136;5.420;2023-04-29T04:22:17;101858.56;;;9.07;88.13
72061;BME280;59925;52.136;5.420;2023-04-29T04:24:44;101857.19;;;9.04;88.45
72061;BME280;59925;52.136;5.420;2023-04-29T04:27:10;101857.19;;;9.04;88.29
72061;BME280;59925;52.136;5.420;2023-04-29T04:29:37;101861.50;;;9.05;87.75
72061;BME280;59925;52.136;5.420;2023-04-29T04:32:04;101859.41;;;9.08;87.38
72061;BME280;59925;52.136;5.420;2023-04-29T04:34:30;101866.13;;;9.10;87.53
72061;BME280;59925;52.136;5.420;2023-04-29T04:36:57;101865.78;;;9.07;87.27
72061;BME280;59925;52.136;5.420;2023-04-29T04:39:23;101870.34;;;9.06;87.50
72061;BME280;59925;52.136;5.420;2023-04-29T04:41:50;101877.06;;;9.09;87.29
72061;BME280;59925;52.136;5.420;2023-04-29T04:44:16;101877.06;;;9.09;87.19
72061;BME280;59925;52.136;5.420;2023-04-29T04:46:43;101882.44;;;9.09;87.37
72061;BME280;59925;52.136;5.420;2023-04-29T04:49:09;101887.78;;;9.09;87.49
72061;BME280;59925;52.136;5.420;2023-04-29T04:51:36;101890.00;;;9.12;87.36
72061;BME280;59925;52.136;5.420;2023-04-29T04:54:02;101894.31;;;9.13;87.80
72061;BME280;59925;52.136;5.420;2023-04-29T04:56:28;101904.16;;;9.12;87.74
72061;BME280;59925;52.136;5.420;2023-04-29T04:58:55;101907.69;;;9.13;88.00
72061;BME280;59925;52.136;5.420;2023-04-29T05:01:21;101912.78;;;9.14;87.68
72061;BME280;59925;52.136;5.420;2023-04-29T05:03:48;101910.69;;;9.16;88.05
72061;BME280;59925;52.136;5.420;2023-04-29T05:06:14;101908.81;;;9.17;87.74
72061;BME280;59925;52.136;5.420;2023-04-29T05:08:41;101908.09;;;9.22;88.03
72061;BME280;59925;52.136;5.420;2023-04-29T05:11:18;101911.16;;;9.25;87.51
72061;BME280;59925;52.136;5.420;2023-04-29T05:13:44;101917.06;;;9.27;87.61
72061;BME280;59925;52.136;5.420;2023-04-29T05:16:11;101926.25;;;9.31;87.99
72061;BME280;59925;52.136;5.420;2023-04-29T05:18:37;101923.13;;;9.34;88.02
72061;BME280;59925;52.136;5.420;2023-04-29T05:21:04;101928.56;;;9.40;87.48
72061;BME280;59925;52.136;5.420;2023-04-29T05:23:31;101933.47;;;9.43;87.63
72061;BME280;59925;52.136;5.420;2023-04-29T05:25:57;101939.16;;;9.46;87.91
72061;BME280;59925;52.136;5.420;2023-04-29T05:28:24;101930.91;;;9.48;87.71
72061;BME280;59925;52.136;5.420;2023-04-29T05:30:53;101932.06;;;9.52;87.51
72061;BME280;59925;52.136;5.420;2023-04-29T05:33:19;101936.13;;;9.55;87.80
72061;BME280;59925;52.136;5.420;2023-04-29T05:35:46;101937.84;;;9.61;87.87
72061;BME280;59925;52.136;5.420;2023-04-29T05:38:13;101937.38;;;9.64;87.38
72061;BME280;59925;52.136;5.420;2023-04-29T05:40:39;101945.28;;;9.71;87.39
72061;BME280;59925;52.136;5.420;2023-04-29T05:43:05;101941.44;;;9.78;86.96
72061;BME280;59925;52.136;5.420;2023-04-29T05:45:32;101952.84;;;9.86;87.08
72061;BME280;59925;52.136;5.420;2023-04-29T05:47:58;101950.94;;;9.98;87.38
72061;BME280;59925;52.136;5.420;2023-04-29T05:50:25;101948.34;;;10.03;86.55
72061;BME280;59925;52.136;5.420;2023-04-29T05:52:51;101952.72;;;10.21;86.79
72061;BME280;59925;52.136;5.420;2023-04-29T05:55:20;101961.38;;;10.40;86.57
72061;BME280;59925;52.136;5.420;2023-04-29T05:57:46;101962.50;;;10.56;85.32
72061;BME280;59925;52.136;5.420;2023-04-29T06:00:12;101970.72;;;10.67;85.11
72061;BME280;59925;52.136;5.420;2023-04-29T06:02:39;101962.84;;;10.94;85.31
72061;BME280;59925;52.136;5.420;2023-04-29T06:05:23;101971.22;;;10.98;84.04
72061;BME280;59925;52.136;5.420;2023-04-29T06:07:50;101975.59;;;10.87;84.01
72061;BME280;59925;52.136;5.420;2023-04-29T06:10:17;101972.50;;;10.78;84.19
72061;BME280;59925;52.136;5.420;2023-04-29T06:12:44;101984.28;;;10.77;84.31
72061;BME280;59925;52.136;5.420;2023-04-29T06:15:11;101979.75;;;10.78;84.87
72061;BME280;59925;52.136;5.420;2023-04-29T06:17:38;101986.03;;;10.83;84.97
72061;BME280;59925;52.136;5.420;2023-04-29T06:20:06;101994.72;;;10.91;84.49
72061;BME280;59925;52.136;5.420;2023-04-29T06:22:32;101996.81;;;10.88;84.58
72061;BME280;59925;52.136;5.420;2023-04-29T06:24:59;101992.66;;;10.81;84.13
72061;BME280;59925;52.136;5.420;2023-04-29T06:27:26;102004.59;;;10.73;84.39
72061;BME280;59925;52.136;5.420;2023-04-29T06:29:53;102012.09;;;10.71;83.88
72061;BME280;59925;52.136;5.420;2023-04-29T06:32:20;102008.44;;;10.77;84.54
72061;BME280;59925;52.136;5.420;2023-04-29T06:34:46;102014.94;;;10.81;84.11
72061;BME280;59925;52.136;5.420;2023-04-29T06:37:13;102006.75;;;10.88;84.36
72061;BME280;59925;52.136;5.420;2023-04-29T06:39:39;102016.28;;;10.96;84.04
72061;BME280;59925;52.136;5.420;2023-04-29T06:42:06;102016.50;;;10.94;83.82
72061;BME280;59925;52.136;5.420;2023-04-29T06:44:32;102022.59;;;11.07;84.26
72061;BME280;59925;52.136;5.420;2023-04-29T06:46:58;102027.47;;;11.10;84.02
72061;BME280;59925;52.136;5.420;2023-04-29T06:49:25;102030.16;;;11.10;82.95
72061;BME280;59925;52.136;5.420;2023-04-29T06:51:51;102046.19;;;11.04;82.76
72061;BME280;59925;52.136;5.420;2023-04-29T06:54:18;102047.41;;;11.14;82.71
72061;BME280;59925;52.136;5.420;2023-04-29T06:56:44;102047.31;;;11.26;82.66
72061;BME280;59925;52.136;5.420;2023-04-29T06:59:11;102052.44;;;11.44;82.44
72061;BME280;59925;52.136;5.420;2023-04-29T07:01:37;102053.91;;;11.52;81.55
72061;BME280;59925;52.136;5.420;2023-04-29T07:04:06;102054.53;;;11.59;81.39
72061;BME280;59925;52.136;5.420;2023-04-29T07:06:33;102058.19;;;11.70;81.24
72061;BME280;59925;52.136;5.420;2023-04-29T07:08:59;102062.25;;;11.90;81.05
72061;BME280;59925;52.136;5.420;2023-04-29T07:11:26;102060.28;;;12.02;80.77
72061;BME280;59925;52.136;5.420;2023-04-29T07:13:52;102064.25;;;12.00;80.47
72061;BME280;59925;52.136;5.420;2023-04-29T07:16:19;102070.59;;;12.10;80.43
72061;BME280;59925;52.136;5.420;2023-04-29T07:18:47;102068.97;;;12.32;80.26
72061;BME280;59925;52.136;5.420;2023-04-29T07:21:14;102072.25;;;12.61;79.93
72061;BME280;59925;52.136;5.420;2023-04-29T07:23:40;102079.59;;;12.98;79.45
72061;BME280;59925;52.136;5.420;2023-04-29T07:26:14;102087.97;;;13.29;77.94
72061;BME280;59925;52.136;5.420;2023-04-29T07:28:42;102084.56;;;13.07;76.97
72061;BME280;59925;52.136;5.420;2023-04-29T07:31:08;102090.72;;;13.02;76.96
72061;BME280;59925;52.136;5.420;2023-04-29T07:33:35;102092.13;;;12.82;75.82
72061;BME280;59925;52.136;5.420;2023-04-29T07:36:02;102099.25;;;12.71;75.62
72061;BME280;59925;52.136;5.420;2023-04-29T07:38:29;102094.16;;;12.70;76.02
72061;BME280;59925;52.136;5.420;2023-04-29T07:40:55;102095.22;;;12.69;75.28
72061;BME280;59925;52.136;5.420;2023-04-29T07:43:22;102094.81;;;12.55;75.29
72061;BME280;59925;52.136;5.420;2023-04-29T07:45:48;102106.91;;;12.80;75.26
72061;BME280;59925;52.136;5.420;2023-04-29T07:48:15;102104.97;;;13.02;74.35
72061;BME280;59925;52.136;5.420;2023-04-29T07:50:41;102105.88;;;13.13;73.32
72061;BME280;59925;52.136;5.420;2023-04-29T07:53:08;102110.63;;;13.33;73.02
72061;BME280;59925;52.136;5.420;2023-04-29T07:55:36;102114.56;;;13.53;72.87
72061;BME280;59925;52.136;5.420;2023-04-29T07:58:03;102116.69;;;13.51;71.96
72061;BME280;59925;52.136;5.420;2023-04-29T08:00:29;102114.28;;;13.87;72.27
72061;BME280;59925;52.136;5.420;2023-04-29T08:02:56;102123.53;;;14.07;71.60
72061;BME280;59925;52.136;5.420;2023-04-29T08:05:23;102122.81;;;14.22;70.86
72061;BME280;59925;52.136;5.420;2023-04-29T08:07:51;102125.88;;;14.46;70.04
72061;BME280;59925;52.136;5.420;2023-04-29T08:10:18;102125.06;;;14.46;69.52
72061;BME280;59925;52.136;5.420;2023-04-29T08:12:45;102123.22;;;14.51;69.63
72061;BME280;59925;52.136;5.420;2023-04-29T08:15:12;102131.97;;;14.79;69.28
72061;BME280;59925;52.136;5.420;2023-04-29T08:17:38;102125.75;;;14.89;67.62
72061;BME280;59925;52.136;5.420;2023-04-29T08:20:05;102136.53;;;14.74;67.17
72061;BME280;59925;52.136;5.420;2023-04-29T08:22:33;102145.84;;;14.45;66.63
72061;BME280;59925;52.136;5.420;2023-04-29T08:24:59;102146.78;;;14.18;66.26
72061;BME280;59925;52.136;5.420;2023-04-29T08:27:28;102153.78;;;14.14;67.38
72061;BME280;59925;52.136;5.420;2023-04-29T08:29:54;102145.38;;;14.10;67.16
72061;BME280;59925;52.136;5.420;2023-04-29T08:32:21;102142.69;;;14.05;66.77
72061;BME280;59925;52.136;5.420;2023-04-29T08:34:47;102142.03;;;14.36;67.53
72061;BME280;59925;52.136;5.420;2023-04-29T08:37:14;102143.56;;;14.85;67.23
72061;BME280;59925;52.136;5.420;2023-04-29T08:39:43;102140.94;;;15.11;66.19
72061;BME280;59925;52.136;5.420;2023-04-29T08:42:12;102138.53;;;15.45;65.23
72061;BME280;59925;52.136;5.420;2023-04-29T08:44:39;102143.09;;;15.19;64.42
72061;BME280;59925;52.136;5.420;2023-04-29T08:47:07;102145.50;;;15.05;64.11
72061;BME280;59925;52.136;5.420;2023-04-29T08:49:34;102150.81;;;14.69;63.84
72061;BME280;59925;52.136;5.420;2023-04-29T08:52:03;102151.22;;;14.40;63.74
72061;BME280;59925;52.136;5.420;2023-04-29T08:54:30;102161.09;;;14.24;63.72
72061;BME280;59925;52.136;5.420;2023-04-29T08:56:57;102144.69;;;14.31;64.12
72061;BME280;59925;52.136;5.420;2023-04-29T08:59:25;102154.19;;;14.44;64.25
72061;BME280;59925;52.136;5.420;2023-04-29T09:01:52;102163.56;;;14.31;64.18
72061;BME280;59925;52.136;5.420;2023-04-29T09:06:57;102168.97;;;14.25;65.17
72061;BME280;59925;52.136;5.420;2023-04-29T09:09:24;102168.09;;;14.73;64.49
72061;BME280;59925;52.136;5.420;2023-04-29T09:11:51;102167.88;;;14.90;63.65
72061;BME280;59925;52.136;5.420;2023-04-29T09:14:19;102168.94;;;14.84;62.89
72061;BME280;59925;52.136;5.420;2023-04-29T09:16:46;102170.81;;;14.83;64.02
72061;BME280;59925;52.136;5.420;2023-04-29T09:19:33;102169.31;;;15.39;63.43
72061;BME280;59925;52.136;5.420;2023-04-29T09:22:02;102176.63;;;15.80;62.75
72061;BME280;59925;52.136;5.420;2023-04-29T09:24:30;102180.31;;;16.26;62.42
72061;BME280;59925;52.136;5.420;2023-04-29T09:26:58;102176.97;;;16.54;61.57
72061;BME280;59925;52.136;5.420;2023-04-29T09:29:24;102173.59;;;16.83;60.41
72061;BME280;59925;52.136;5.420;2023-04-29T09:31:51;102175.84;;;16.71;59.38
72061;BME280;59925;52.136;5.420;2023-04-29T09:34:31;102187.59;;;16.41;59.36
72061;BME280;59925;52.136;5.420;2023-04-29T09:36:58;102177.88;;;16.39;59.50
72061;BME280;59925;52.136;5.420;2023-04-29T09:39:24;102184.38;;;16.28;58.64
72061;BME280;59925;52.136;5.420;2023-04-29T09:44:22;102187.03;;;16.49;58.38
72061;BME280;59925;52.136;5.420;2023-04-29T09:47:00;102193.94;;;16.76;59.20
72061;BME280;59925;52.136;5.420;2023-04-29T09:49:34;102197.25;;;17.18;58.05
72061;BME280;59925;52.136;5.420;2023-04-29T09:52:05;102203.22;;;17.14;57.71
72061;BME280;59925;52.136;5.420;2023-04-29T09:54:33;102202.97;;;16.55;55.83
72061;BME280;59925;52.136;5.420;2023-04-29T09:57:02;102204.97;;;16.03;57.88
72061;BME280;59925;52.136;5.420;2023-04-29T09:59:32;102203.56;;;16.47;57.69
72061;BME280;59925;52.136;5.420;2023-04-29T10:02:21;102205.53;;;16.87;56.43
72061;BME280;59925;52.136;5.420;2023-04-29T10:04:55;102193.66;;;17.27;56.74
72061;BME280;59925;52.136;5.420;2023-04-29T10:07:24;102197.63;;;17.40;56.08
72061;BME280;59925;52.136;5.420;2023-04-29T10:09:53;102196.75;;;17.50;55.21
72061;BME280;59925;52.136;5.420;2023-04-29T10:12:20;102203.22;;;17.54;55.12
72061;BME280;59925;52.136;5.420;2023-04-29T10:14:51;102204.19;;;17.34;54.75
72061;BME280;59925;52.136;5.420;2023-04-29T10:17:35;102197.78;;;16.64;54.56
72061;BME280;59925;52.136;5.420;2023-04-29T10:20:07;102203.69;;;16.72;56.46
72061;BME280;59925;52.136;5.420;2023-04-29T10:22:48;102199.38;;;16.76;56.23
72061;BME280;59925;52.136;5.420;2023-04-29T10:25:16;102205.03;;;16.79;55.80
72061;BME280;59925;52.136;5.420;2023-04-29T10:27:44;102199.19;;;17.52;55.56
72061;BME280;59925;52.136;5.420;2023-04-29T10:30:14;102199.97;;;17.87;53.93
72061;BME280;59925;52.136;5.420;2023-04-29T10:32:46;102201.63;;;17.53;53.21
72061;BME280;59925;52.136;5.420;2023-04-29T10:35:19;102205.16;;;17.09;53.21
72061;BME280;59925;52.136;5.420;2023-04-29T10:37:46;102204.16;;;16.94;54.04
72061;BME280;59925;52.136;5.420;2023-04-29T10:40:35;102202.56;;;17.33;55.30
72061;BME280;59925;52.136;5.420;2023-04-29T10:43:05;102206.78;;;17.50;54.95
72061;BME280;59925;52.136;5.420;2023-04-29T10:45:32;102206.69;;;17.95;54.39
72061;BME280;59925;52.136;5.420;2023-04-29T10:50:29;102206.91;;;18.28;51.77
72061;BME280;59925;52.136;5.420;2023-04-29T10:52:55;102215.00;;;17.39;52.56
72061;BME280;59925;52.136;5.420;2023-04-29T10:55:23;102205.53;;;16.97;53.12
72061;BME280;59925;52.136;5.420;2023-04-29T10:57:56;102203.81;;;17.11;53.27
72061;BME280;59925;52.136;5.420;2023-04-29T11:00:28;102215.16;;;17.53;53.46
72061;BME280;59925;52.136;5.420;2023-04-29T11:02:59;102205.41;;;17.87;52.82
72061;BME280;59925;52.136;5.420;2023-04-29T11:05:30;102203.56;;;17.77;53.23
72061;BME280;59925;52.136;5.420;2023-04-29T11:08:20;102207.63;;;17.80;52.53
72061;BME280;59925;52.136;5.420;2023-04-29T11:10:53;102202.56;;;18.02;52.94
72061;BME280;59925;52.136;5.420;2023-04-29T11:13:26;102212.97;;;17.90;53.03
72061;BME280;59925;52.136;5.420;2023-04-29T11:16:11;102208.63;;;18.18;52.66
72061;BME280;59925;52.136;5.420;2023-04-29T11:19:06;102208.19;;;18.79;51.93
72061;BME280;59925;52.136;5.420;2023-04-29T11:21:36;102208.88;;;18.90;50.66
72061;BME280;59925;52.136;5.420;2023-04-29T11:24:03;102214.19;;;19.00;50.36
72061;BME280;59925;52.136;5.420;2023-04-29T11:26:33;102214.38;;;19.42;49.74
72061;BME280;59925;52.136;5.420;2023-04-29T11:29:00;102211.59;;;19.47;48.92
72061;BME280;59925;52.136;5.420;2023-04-29T11:31:31;102206.56;;;19.54;47.46
72061;BME280;59925;52.136;5.420;2023-04-29T11:33:58;102209.16;;;19.45;47.21
72061;BME280;59925;52.136;5.420;2023-04-29T11:36:25;102210.06;;;19.74;47.96
72061;BME280;59925;52.136;5.420;2023-04-29T11:38:52;102210.16;;;20.02;49.02
72061;BME280;59925;52.136;5.420;2023-04-29T11:41:19;102205.22;;;20.46;48.08
72061;BME280;59925;52.136;5.420;2023-04-29T11:43:53;102214.38;;;20.64;47.07
72061;BME280;59925;52.136;5.420;2023-04-29T11:46:20;102212.16;;;20.80;47.05
72061;BME280;59925;52.136;5.420;2023-04-29T11:48:48;102205.41;;;21.14;47.60
72061;BME280;59925;52.136;5.420;2023-04-29T11:51:16;102207.97;;;21.33;45.30
72061;BME280;59925;52.136;5.420;2023-04-29T11:53:43;102199.53;;;20.84;45.18
72061;BME280;59925;52.136;5.420;2023-04-29T11:56:10;102197.66;;;20.43;45.40
72061;BME280;59925;52.136;5.420;2023-04-29T11:58:37;102199.44;;;20.75;46.19
72061;BME280;59925;52.136;5.420;2023-04-29T12:01:04;102210.09;;;21.00;46.04
72061;BME280;59925;52.136;5.420;2023-04-29T12:03:31;102209.44;;;21.39;47.37
72061;BME280;59925;52.136;5.420;2023-04-29T12:06:00;102207.75;;;21.75;45.93
72061;BME280;59925;52.136;5.420;2023-04-29T12:08:28;102213.16;;;21.98;44.96
72061;BME280;59925;52.136;5.420;2023-04-29T12:10:57;102209.06;;;22.18;44.53
72061;BME280;59925;52.136;5.420;2023-04-29T12:13:26;102203.94;;;21.53;43.91
72061;BME280;59925;52.136;5.420;2023-04-29T12:15:54;102210.88;;;21.00;44.45
72061;BME280;59925;52.136;5.420;2023-04-29T12:18:21;102206.50;;;20.76;45.47
72061;BME280;59925;52.136;5.420;2023-04-29T12:20:49;102205.53;;;21.09;44.47
72061;BME280;59925;52.136;5.420;2023-04-29T12:23:20;102207.13;;;21.33;43.98
72061;BME280;59925;52.136;5.420;2023-04-29T12:25:54;102200.69;;;21.51;44.14
72061;BME280;59925;52.136;5.420;2023-04-29T12:28:21;102201.28;;;21.62;43.77
72061;BME280;59925;52.136;5.420;2023-04-29T12:30:49;102199.44;;;21.80;42.97
72061;BME280;59925;52.136;5.420;2023-04-29T12:33:24;102208.88;;;21.74;43.56
72061;BME280;59925;52.136;5.420;2023-04-29T12:35:53;102204.53;;;21.73;43.18
72061;BME280;59925;52.136;5.420;2023-04-29T12:38:24;102209.28;;;21.90;41.77
72061;BME280;59925;52.136;5.420;2023-04-29T12:40:58;102201.00;;;21.27;44.04
72061;BME280;59925;52.136;5.420;2023-04-29T12:43:28;102204.69;;;21.68;44.88
72061;BME280;59925;52.136;5.420;2023-04-29T12:46:05;102209.00;;;21.23;44.20
72061;BME280;59925;52.136;5.420;2023-04-29T12:48:35;102212.34;;;21.20;43.77
72061;BME280;59925;52.136;5.420;2023-04-29T12:51:04;102212.66;;;21.19;44.76
72061;BME280;59925;52.136;5.420;2023-04-29T12:53:31;102213.38;;;21.70;43.95
72061;BME280;59925;52.136;5.420;2023-04-29T12:55:57;102210.19;;;22.08;42.45
72061;BME280;59925;52.136;5.420;2023-04-29T12:58:27;102216.44;;;21.77;42.61
72061;BME280;59925;52.136;5.420;2023-04-29T13:00:54;102223.00;;;21.08;42.52
72061;BME280;59925;52.136;5.420;2023-04-29T13:03:21;102219.22;;;20.53;43.96
72061;BME280;59925;52.136;5.420;2023-04-29T13:05:48;102211.69;;;20.50;44.40
72061;BME280;59925;52.136;5.420;2023-04-29T13:08:18;102218.44;;;21.40;44.94
72061;BME280;59925;52.136;5.420;2023-04-29T13:10:44;102215.31;;;21.33;43.68
72061;BME280;59925;52.136;5.420;2023-04-29T13:13:11;102216.94;;;21.11;43.38
72061;BME280;59925;52.136;5.420;2023-04-29T13:15:37;102231.84;;;21.13;43.64